< Typhoon 198911 1989 Season Typhoon 198913 >
Typhoon 198912 (KEN/LOLA)
General InformationTrack Information on Google MapsDetailed Wind InformationList of All Images || NewsDisaster Info.ResourceGoogle EarthGE AnimationAtom FeedGeoJSON
Detalied Best Track (Time Zone = UTC)
Year Month Day Hour Lat. Long. Pressure (hPa) Wind (kt) Class Image Chart
1989 7 28 00 21.5 129.5 998 0 2 Image Chart
1989 7 28 06 21.0 130.3 998 0 2 Image Chart
1989 7 28 12 21.0 131.0 998 0 2 Image Chart
1989 7 28 18 21.2 131.5 998 0 2 Image Chart
1989 7 29 00 21.5 132.2 996 0 2 Image Chart
1989 7 29 06 21.7 133.0 992 40 3 Image Chart
1989 7 29 12 22.0 134.0 992 40 3 Image Chart
1989 7 29 18 23.0 135.0 992 40 3 Image Chart
1989 7 30 00 24.0 136.0 992 40 3 Image Chart
1989 7 30 06 25.0 137.0 990 45 3 Image Chart
1989 7 30 12 26.1 137.5 990 45 3 Image Chart
1989 7 30 18 27.5 137.0 985 50 4 Image Chart
1989 7 31 00 28.7 135.0 980 55 4 Image Chart
1989 7 31 06 29.2 132.5 980 55 4 Image Chart
1989 7 31 12 28.7 130.3 985 50 4 Image Chart
1989 7 31 18 27.8 129.3 985 50 4 Image Chart
1989 8 1 00 27.0 129.2 980 50 4 Image Chart
1989 8 1 06 27.0 129.5 980 50 4 Image Chart
1989 8 1 12 26.9 129.5 980 50 4 Image Chart
1989 8 1 18 26.5 129.2 980 45 3 Image Chart
1989 8 2 00 27.0 129.1 980 45 3 Image Chart
1989 8 2 06 27.2 128.6 980 45 3 Image Chart
1989 8 2 12 27.7 128.3 980 45 3 Image Chart
1989 8 2 18 28.5 127.8 980 45 3 Image Chart
1989 8 3 00 29.5 126.5 980 50 4 Image Chart
1989 8 3 06 29.9 125.1 980 50 4 Image Chart
1989 8 3 12 30.4 123.8 980 50 4 Image Chart
1989 8 3 18 30.8 122.6 980 50 4 Image Chart
1989 8 4 00 31.4 121.2 985 45 3 Image Chart
1989 8 4 06 31.5 119.8 990 40 3 Image Chart
1989 8 4 12 31.6 119.0 992 35 3 Image Chart
1989 8 4 18 31.6 118.1 996 0 2 Image Chart
1989 8 5 00 31.7 117.3 998 0 2 Image Chart
1989 8 5 06 31.8 116.7 998 0 2 Image Chart
1989 8 5 12 32.0 116.2 998 0 2 Image Chart
1989 8 5 18 32.2 115.7 1000 0 2 Image Chart
1989 8 6 00 32.7 115.1 1000 0 2 Image Chart
1989 8 6 06 32.4 114.0 998 0 2 Image Chart
1989 8 6 12 31.7 113.7 998 0 2 Image Chart
1989 8 6 18 31.3 113.0 1000 0 2 Image Chart
1989 8 7 00 30.6 112.6 1000 0 2 Image Chart
1989 8 7 06 30.0 112.0 1000 0 2 Image Chart
Japan Meteorological Agency Best Track Data | Correction Date : 1992-10-21
< Typhoon 198911 1989 Season Typhoon 198913 >

Help